ENHV/HVG METAR and TAF weather

Enter ICAO airport designator
Station Type Date Time Source
ENHV METAR 2021/10/20 06:50 UTC NOAA

ENHV 200650Z 20004KT 9999 VCSH FEW023 SCT034 M02/M05 Q1004


Station Type Date Time Source
ENHV Decoded METAR 2021/10/20 06:50 UTC NOAA

Honningsvag / Valan, Norway (ENHV) 71-01N 025-59E 14M
Oct 20, 2021 - 02:50 AM EDT / 2021.10.20 0650 UTC
Wind: from the SSW (200 degrees) at 5 MPH (4 KT):0
Visibility: greater than 7 mile(s):0
Sky conditions: partly cloudy
Weather: showers in the vicinity
Temperature: 28 F (-2 C)
Windchill: 23 F (-5 C):1
Dew Point: 23 F (-5 C)
Relative Humidity: 79%
Pressure (altimeter): 29.65 in. Hg (1004 hPa)
ob: ENHV 200650Z 20004KT 9999 VCSH FEW023 SCT034 M02/M05 Q1004
cycle: 7

Station Type Date Time Source
ENHV TAF UTC NOAA

Error!

Example: see airport list